createdAt,value
2022-09-02T00:01:37.911Z,2.00
2022-09-02T00:04:10.759Z,2.03
2022-09-02T00:06:39.315Z,2.15
2022-09-02T00:09:08.881Z,2.28
2022-09-02T00:11:40.146Z,2.10
2022-09-02T00:14:11.839Z,1.90
2022-09-02T00:16:41.782Z,2.28
2022-09-02T00:19:11.158Z,2.15
2022-09-02T00:21:39.123Z,2.08
2022-09-02T00:24:07.719Z,2.05
2022-09-02T00:26:35.797Z,1.98
2022-09-02T00:29:03.847Z,1.75
2022-09-02T00:31:33.548Z,2.00
2022-09-02T00:34:01.588Z,2.10
2022-09-02T00:36:31.213Z,1.88
2022-09-02T00:38:59.212Z,1.80
2022-09-02T00:41:29.667Z,2.13
2022-09-02T00:44:00.768Z,1.85
2022-09-02T00:46:31.138Z,2.00
2022-09-02T00:49:03.415Z,1.90
2022-09-02T00:51:36.905Z,2.08
2022-09-02T00:54:06.248Z,1.88
2022-09-02T00:56:34.874Z,2.30
2022-09-02T00:59:03.734Z,1.70
2022-09-02T01:01:32.073Z,1.80
2022-09-02T01:04:00.446Z,1.80
2022-09-02T01:06:32.943Z,1.73
2022-09-02T01:09:08.680Z,1.90
2022-09-02T01:11:42.461Z,1.83
2022-09-02T01:14:12.467Z,1.90
2022-09-02T01:16:43.557Z,1.70
2022-09-02T01:19:20.991Z,1.90
2022-09-02T01:21:51.440Z,2.17
2022-09-02T01:24:21.306Z,1.63
2022-09-02T01:26:49.834Z,1.70
2022-09-02T01:29:17.906Z,1.90
2022-09-02T01:31:46.010Z,1.90
2022-09-02T01:34:14.031Z,2.10
2022-09-02T01:36:43.154Z,2.00
2022-09-02T01:39:13.935Z,2.10
2022-09-02T01:41:42.738Z,1.80
2022-09-02T01:44:12.154Z,2.10
2022-09-02T01:46:41.118Z,2.20
2022-09-02T01:49:09.333Z,1.83
2022-09-02T01:51:38.469Z,1.90
2022-09-02T01:54:07.344Z,1.90
2022-09-02T01:56:38.049Z,1.92
2022-09-02T01:59:07.810Z,1.80
2022-09-02T02:01:36.091Z,1.60
2022-09-02T02:04:04.896Z,1.92
2022-09-02T02:06:33.928Z,1.92
2022-09-02T02:09:01.957Z,1.88
2022-09-02T02:11:31.620Z,2.20
2022-09-02T02:14:02.399Z,1.90
2022-09-02T02:16:30.991Z,1.65
2022-09-02T02:18:59.779Z,1.70
2022-09-02T02:21:27.896Z,1.88
2022-09-02T02:23:55.951Z,1.95
2022-09-02T02:26:23.953Z,1.88
2022-09-02T02:28:52.152Z,2.00
2022-09-02T02:31:21.819Z,1.90
2022-09-02T02:33:50.075Z,1.80
2022-09-02T02:36:20.053Z,1.88
2022-09-02T02:38:48.206Z,2.03
2022-09-02T02:41:16.684Z,1.83
2022-09-02T02:43:47.010Z,2.00
2022-09-02T02:46:16.789Z,1.90
2022-09-02T02:48:47.366Z,2.00
2022-09-02T02:51:15.604Z,1.83
2022-09-02T02:53:43.794Z,1.80
2022-09-02T02:56:11.838Z,1.92
2022-09-02T02:58:39.860Z,1.80
2022-09-02T03:01:09.587Z,2.22
2022-09-02T03:03:37.831Z,2.80
2022-09-02T03:06:07.944Z,2.45
2022-09-02T03:08:36.822Z,1.88
2022-09-02T03:11:07.011Z,2.30
2022-09-02T03:13:39.047Z,2.00
2022-09-02T03:16:07.122Z,1.73
2022-09-02T03:18:35.865Z,2.28
2022-09-02T03:21:10.167Z,2.20
2022-09-02T03:23:38.257Z,1.90
2022-09-02T03:26:11.765Z,2.20
2022-09-02T03:28:40.351Z,2.05
2022-09-02T03:31:14.240Z,1.77
2022-09-02T03:33:42.405Z,2.20
2022-09-02T03:36:21.160Z,2.08
2022-09-02T03:38:50.700Z,1.95
2022-09-02T03:41:18.822Z,2.08
2022-09-02T03:43:48.497Z,2.20
2022-09-02T03:46:17.459Z,1.80
2022-09-02T03:48:47.153Z,1.90
2022-09-02T03:51:16.863Z,1.75
2022-09-02T03:53:45.351Z,2.10
2022-09-02T03:56:15.925Z,2.22
2022-09-02T03:58:46.127Z,1.90
2022-09-02T04:01:16.375Z,2.03
2022-09-02T04:03:45.488Z,2.20
2022-09-02T04:06:15.150Z,1.73
2022-09-02T04:08:46.909Z,2.08
2022-09-02T04:11:17.909Z,1.80
2022-09-02T04:13:49.426Z,1.70
2022-09-02T04:16:22.444Z,1.73
2022-09-02T04:18:50.893Z,1.80
2022-09-02T04:21:19.590Z,2.00
2022-09-02T04:23:49.406Z,1.70
2022-09-02T04:26:18.461Z,2.08
2022-09-02T04:28:46.781Z,1.70
2022-09-02T04:31:17.080Z,2.00
2022-09-02T04:33:45.466Z,2.10
2022-09-02T04:36:19.060Z,1.80
2022-09-02T04:38:50.260Z,2.22
2022-09-02T04:41:24.933Z,1.80
2022-09-02T04:43:57.182Z,2.15
2022-09-02T04:46:29.780Z,1.90
2022-09-02T04:49:03.506Z,1.70
2022-09-02T04:51:32.876Z,1.90
2022-09-02T04:54:03.860Z,1.83
2022-09-02T04:56:32.807Z,1.80
2022-09-02T04:59:03.282Z,2.13
2022-09-02T05:01:34.270Z,2.25
2022-09-02T05:04:09.660Z,2.13
2022-09-02T05:06:44.331Z,2.15
2022-09-02T05:09:18.764Z,1.70
2022-09-02T05:11:52.068Z,2.20
2022-09-02T05:14:23.571Z,1.98
2022-09-02T05:16:54.055Z,1.95
2022-09-02T05:19:23.273Z,1.70
2022-09-02T05:21:56.078Z,1.80
2022-09-02T05:24:38.676Z,2.28
2022-09-02T05:27:10.054Z,1.98
2022-09-02T05:29:38.590Z,2.10
2022-09-02T05:32:08.454Z,2.20
2022-09-02T05:34:39.768Z,2.53
2022-09-02T05:37:07.945Z,1.67
2022-09-02T05:39:38.365Z,1.92
2022-09-02T05:42:08.189Z,1.80
2022-09-02T05:44:38.713Z,1.83
2022-09-02T05:47:07.782Z,2.40
2022-09-02T05:49:36.063Z,1.70
2022-09-02T05:52:13.430Z,1.50
2022-09-02T05:54:49.271Z,1.92
2022-09-02T05:57:21.584Z,1.85
2022-09-02T05:59:57.504Z,1.83
2022-09-02T06:02:41.903Z,1.60
2022-09-02T06:05:14.197Z,1.58
2022-09-02T06:07:48.475Z,1.70
2022-09-02T06:10:20.235Z,1.88
2022-09-02T06:12:48.544Z,1.98
2022-09-02T06:15:20.149Z,1.75
2022-09-02T06:17:48.143Z,1.90
2022-09-02T06:20:16.133Z,1.60
2022-09-02T06:22:45.268Z,1.75
2022-09-02T06:25:13.723Z,1.92
2022-09-02T06:27:43.923Z,2.13
2022-09-02T06:30:14.506Z,1.80
2022-09-02T06:32:42.764Z,1.88
2022-09-02T06:35:19.284Z,2.70
2022-09-02T06:37:47.308Z,1.77
2022-09-02T06:40:16.290Z,1.60
2022-09-02T06:42:48.122Z,2.03
2022-09-02T06:45:27.782Z,1.85
2022-09-02T06:47:59.023Z,2.35
2022-09-02T06:50:27.944Z,2.13
2022-09-02T06:52:56.501Z,1.95
2022-09-02T06:55:24.991Z,2.25
2022-09-02T06:57:55.101Z,2.28
2022-09-02T07:00:23.423Z,1.75
2022-09-02T07:03:11.543Z,2.22
2022-09-02T07:05:39.469Z,2.42
2022-09-02T07:08:07.613Z,2.33
2022-09-02T07:10:39.874Z,2.10
2022-09-02T07:13:11.500Z,2.00
2022-09-02T07:15:42.428Z,2.00
2022-09-02T07:18:11.598Z,2.00
2022-09-02T07:20:39.916Z,1.88
2022-09-02T07:23:07.950Z,2.08
2022-09-02T07:25:39.368Z,1.65
2022-09-02T07:28:10.729Z,1.80
2022-09-02T07:30:41.483Z,1.70
2022-09-02T07:33:14.471Z,1.92
2022-09-02T07:35:46.143Z,2.10
2022-09-02T07:38:17.396Z,1.90
2022-09-02T07:40:47.044Z,1.67
2022-09-02T07:43:18.469Z,1.80
2022-09-02T07:45:47.067Z,1.80
2022-09-02T07:48:15.840Z,1.70
2022-09-02T07:50:43.950Z,1.55
2022-09-02T07:53:16.599Z,1.95
2022-09-02T07:55:47.195Z,1.67
2022-09-02T07:58:20.402Z,1.52
2022-09-02T08:00:49.054Z,1.75
2022-09-02T08:03:18.330Z,1.52
2022-09-02T08:05:52.645Z,1.42
2022-09-02T08:08:21.825Z,1.50
2022-09-02T08:10:51.734Z,1.40
2022-09-02T08:13:26.917Z,1.30
2022-09-02T08:15:55.826Z,1.50
2022-09-02T08:18:24.956Z,1.38
2022-09-02T08:20:52.926Z,1.20
2022-09-02T08:23:36.019Z,1.40
2022-09-02T08:26:05.578Z,1.50
2022-09-02T08:28:35.507Z,1.20
2022-09-02T08:31:06.757Z,1.48
2022-09-02T08:33:35.045Z,1.60
2022-09-02T08:36:05.061Z,1.63
2022-09-02T08:38:33.203Z,1.65
2022-09-02T08:41:01.975Z,1.80
2022-09-02T08:43:40.206Z,1.75
2022-09-02T08:46:12.254Z,1.50
2022-09-02T08:48:45.249Z,1.70
2022-09-02T08:51:21.458Z,1.48
2022-09-02T08:53:54.988Z,1.38
2022-09-02T08:56:22.939Z,1.85
2022-09-02T08:58:56.424Z,1.33
2022-09-02T09:01:36.967Z,1.60
2022-09-02T09:04:21.540Z,1.70
2022-09-02T09:07:07.361Z,1.85
2022-09-02T09:09:48.907Z,1.77
2022-09-02T09:12:27.224Z,3.10
2022-09-02T09:15:04.732Z,1.58
2022-09-02T09:17:42.382Z,1.52
2022-09-02T09:20:19.685Z,1.70
2022-09-02T09:22:51.214Z,1.60
2022-09-02T09:25:19.807Z,1.50
2022-09-02T09:27:47.820Z,1.50
2022-09-02T09:30:16.321Z,1.40
2022-09-02T09:32:48.604Z,1.50
2022-09-02T09:35:18.080Z,1.30
2022-09-02T09:37:48.073Z,1.40
2022-09-02T09:40:31.500Z,1.48
2022-09-02T09:43:15.174Z,1.50
2022-09-02T09:45:45.624Z,1.60
2022-09-02T09:48:23.009Z,1.50
2022-09-02T09:51:12.419Z,1.35
2022-09-02T09:53:41.131Z,1.25
2022-09-02T09:56:24.999Z,1.20
2022-09-02T09:58:53.096Z,1.17
2022-09-02T10:01:23.724Z,1.10
2022-09-02T10:03:56.904Z,1.30
2022-09-02T10:06:36.748Z,1.58
2022-09-02T10:09:06.987Z,1.30
2022-09-02T10:11:36.994Z,1.40
2022-09-02T10:14:06.589Z,1.02
2022-09-02T10:16:47.343Z,1.30
2022-09-02T10:19:26.981Z,1.17
2022-09-02T10:22:11.851Z,1.42
2022-09-02T10:24:58.992Z,1.10
2022-09-02T10:27:36.889Z,1.30
2022-09-02T10:30:08.916Z,1.10
2022-09-02T10:33:03.536Z,1.20
2022-09-02T10:35:41.353Z,1.17
2022-09-02T10:38:25.788Z,1.20
2022-09-02T10:40:59.725Z,1.23
2022-09-02T10:43:37.965Z,1.10
2022-09-02T10:46:09.651Z,1.30
2022-09-02T10:48:51.287Z,1.10
2022-09-02T10:51:29.981Z,1.58
2022-09-02T10:54:11.550Z,1.20
2022-09-02T10:56:45.009Z,1.17
2022-09-02T10:59:20.014Z,1.33
2022-09-02T11:01:52.389Z,1.40
2022-09-02T11:04:27.897Z,1.30
2022-09-02T11:07:03.034Z,1.30
2022-09-02T11:09:37.361Z,1.15
2022-09-02T11:12:09.406Z,1.30
2022-09-02T11:14:44.397Z,1.40
2022-09-02T11:17:21.050Z,1.50
2022-09-02T11:19:55.482Z,1.60
2022-09-02T11:22:29.706Z,1.40
2022-09-02T11:25:04.292Z,1.50
2022-09-02T11:27:42.592Z,1.60
2022-09-02T11:30:15.450Z,1.50
2022-09-02T11:32:50.382Z,1.50
2022-09-02T11:35:21.732Z,1.38
2022-09-02T11:37:55.475Z,1.50
2022-09-02T11:40:34.663Z,1.40
2022-09-02T11:43:22.171Z,1.58
2022-09-02T11:46:23.247Z,1.45
2022-09-02T11:49:23.181Z,1.35
2022-09-02T11:52:20.198Z,1.40
2022-09-02T11:54:59.424Z,1.65
2022-09-02T11:57:30.133Z,1.30
2022-09-02T12:00:41.103Z,1.30
2022-09-02T12:03:38.818Z,1.70
2022-09-02T12:06:09.043Z,1.40
2022-09-02T12:09:11.066Z,1.30
2022-09-02T12:11:54.916Z,1.30
2022-09-02T12:15:04.680Z,1.50
2022-09-02T12:17:41.782Z,1.15
2022-09-02T12:20:12.064Z,1.27
2022-09-02T12:22:42.021Z,1.33
2022-09-02T12:25:38.192Z,1.30
2022-09-02T12:28:25.312Z,1.40
2022-09-02T12:31:41.941Z,1.20
2022-09-02T12:34:47.769Z,1.50
2022-09-02T12:37:48.738Z,1.20
2022-09-02T12:40:22.633Z,1.30
2022-09-02T12:42:52.628Z,1.35
2022-09-02T12:45:29.125Z,1.33
2022-09-02T12:48:02.224Z,1.25
2022-09-02T12:50:36.005Z,1.25
2022-09-02T12:53:26.096Z,1.38
2022-09-02T12:55:57.918Z,1.27
2022-09-02T12:58:26.460Z,1.40
2022-09-02T13:01:06.731Z,1.15
2022-09-02T13:03:49.356Z,1.10
2022-09-02T13:06:26.560Z,1.27
2022-09-02T13:12:26.378Z,1.20
2022-09-02T13:15:02.349Z,1.50
2022-09-02T13:18:10.190Z,1.42
2022-09-02T13:21:26.063Z,1.10
2022-09-02T13:24:34.414Z,1.63
2022-09-02T13:27:42.812Z,1.15
2022-09-02T13:30:22.009Z,1.23
2022-09-02T13:33:03.032Z,1.23
2022-09-02T13:35:31.380Z,1.23
2022-09-02T13:38:01.501Z,1.40
2022-09-02T13:40:33.451Z,1.30
2022-09-02T13:43:02.724Z,1.50
2022-09-02T13:45:34.272Z,1.40
2022-09-02T13:48:07.977Z,1.30
2022-09-02T13:50:38.143Z,1.30
2022-09-02T13:55:58.866Z,1.10
2022-09-02T13:58:36.303Z,1.30
2022-09-02T14:01:28.348Z,1.10
2022-09-02T14:03:59.739Z,1.25
2022-09-02T14:06:30.782Z,1.05
2022-09-02T14:09:02.139Z,1.30
2022-09-02T14:11:34.489Z,1.10
2022-09-02T14:14:02.753Z,1.08
2022-09-02T14:16:34.001Z,1.10
2022-09-02T14:19:08.493Z,1.20
2022-09-02T14:21:37.202Z,2.65
2022-09-02T14:24:06.381Z,1.17
2022-09-02T14:26:37.979Z,1.10
2022-09-02T14:29:07.709Z,1.10
2022-09-02T14:31:37.826Z,1.00
2022-09-02T14:34:35.393Z,1.20
2022-09-02T14:37:25.312Z,1.13
2022-09-02T14:40:06.905Z,1.00
2022-09-02T14:42:35.466Z,1.10
2022-09-02T14:45:05.658Z,1.25
2022-09-02T14:47:38.040Z,1.25
2022-09-02T14:50:12.033Z,1.08
2022-09-02T14:52:47.850Z,1.08
2022-09-02T14:55:47.174Z,1.30
2022-09-02T14:58:16.314Z,1.10
2022-09-02T15:00:46.884Z,1.17
2022-09-02T15:03:16.393Z,1.20
2022-09-02T15:05:46.180Z,1.13
2022-09-02T15:08:15.003Z,1.10
2022-09-02T15:10:45.051Z,1.20
2022-09-02T15:13:15.278Z,1.20
2022-09-02T15:15:43.266Z,1.30
2022-09-02T15:18:14.061Z,1.13
2022-09-02T15:20:42.083Z,1.23
2022-09-02T15:23:11.380Z,1.23
2022-09-02T15:25:39.433Z,1.25
2022-09-02T15:28:07.447Z,1.30
2022-09-02T15:30:36.636Z,1.30
2022-09-02T15:33:05.569Z,1.20
2022-09-02T15:35:34.758Z,1.10
2022-09-02T15:38:03.454Z,1.40
2022-09-02T15:40:32.949Z,1.25
2022-09-02T15:43:01.188Z,1.20
2022-09-02T15:45:29.199Z,1.00
2022-09-02T15:47:58.992Z,1.40
2022-09-02T15:50:28.259Z,1.33
2022-09-02T15:52:56.796Z,1.20
2022-09-02T15:55:29.302Z,1.23
2022-09-02T15:57:58.903Z,1.30
2022-09-02T16:00:28.671Z,1.25
2022-09-02T16:02:57.429Z,1.40
2022-09-02T16:05:25.468Z,1.20
2022-09-02T16:07:55.061Z,1.30
2022-09-02T16:10:23.139Z,1.20
2022-09-02T16:12:51.314Z,1.15
2022-09-02T16:15:20.884Z,1.30
2022-09-02T16:17:49.992Z,1.20
2022-09-02T16:20:21.223Z,1.35
2022-09-02T16:22:49.599Z,1.20
2022-09-02T16:25:17.765Z,1.30
2022-09-02T16:27:55.887Z,1.10
2022-09-02T16:30:29.907Z,1.20
2022-09-02T16:32:57.958Z,1.20
2022-09-02T16:35:25.914Z,1.20
2022-09-02T16:37:59.043Z,1.20
2022-09-02T16:40:44.832Z,1.10
2022-09-02T16:43:14.372Z,1.23
2022-09-02T16:45:43.911Z,1.33
2022-09-02T16:48:11.860Z,1.23
2022-09-02T16:50:40.079Z,1.23
2022-09-02T16:53:08.460Z,1.00
2022-09-02T16:55:41.444Z,1.10
2022-09-02T16:58:11.469Z,1.25
2022-09-02T17:00:40.185Z,1.20
2022-09-02T17:03:11.675Z,1.10
2022-09-02T17:05:40.395Z,1.45
2022-09-02T17:08:08.632Z,1.02
2022-09-02T17:10:37.443Z,1.05
2022-09-02T17:13:05.415Z,1.27
2022-09-02T17:15:33.659Z,1.33
2022-09-02T17:18:01.733Z,1.20
2022-09-02T17:20:31.068Z,1.10
2022-09-02T17:22:59.046Z,1.05
2022-09-02T17:25:27.149Z,1.20
2022-09-02T17:27:55.078Z,1.05
2022-09-02T17:30:23.757Z,1.00
2022-09-02T17:32:56.352Z,1.10
2022-09-02T17:35:25.817Z,1.10
2022-09-02T17:37:55.252Z,1.10
2022-09-02T17:40:37.162Z,1.50
2022-09-02T17:43:05.111Z,1.25
2022-09-02T17:45:33.318Z,1.30
2022-09-02T17:48:19.228Z,1.40
2022-09-02T17:50:49.215Z,1.10
2022-09-02T17:53:19.044Z,1.50
2022-09-02T17:55:48.943Z,1.40
2022-09-02T17:58:21.605Z,1.20
2022-09-02T18:00:54.427Z,1.58
2022-09-02T18:03:36.129Z,1.20
2022-09-02T18:06:10.024Z,1.20
2022-09-02T18:08:51.935Z,1.25
2022-09-02T18:11:20.463Z,1.38
2022-09-02T18:13:57.260Z,1.40
2022-09-02T18:16:36.861Z,1.48
2022-09-02T18:19:14.161Z,1.17
2022-09-02T18:21:54.070Z,1.38
2022-09-02T18:24:33.108Z,1.60
2022-09-02T18:27:10.964Z,1.35
2022-09-02T18:29:55.001Z,1.38
2022-09-02T18:32:34.830Z,1.20
2022-09-02T18:35:12.829Z,1.30
2022-09-02T18:37:49.912Z,1.20
2022-09-02T18:40:30.410Z,1.30
2022-09-02T18:43:12.840Z,1.70
2022-09-02T18:45:48.098Z,1.50
2022-09-02T18:48:19.842Z,1.85
2022-09-02T18:50:53.594Z,1.67
2022-09-02T18:53:24.071Z,1.27
2022-09-02T18:55:55.150Z,1.50
2022-09-02T18:58:34.927Z,1.77
2022-09-02T19:01:07.497Z,1.73
2022-09-02T19:03:37.270Z,1.60
2022-09-02T19:06:11.310Z,1.50
2022-09-02T19:08:38.494Z,1.52
2022-09-02T19:11:10.756Z,1.48
2022-09-02T19:13:46.813Z,1.35
2022-09-02T19:16:18.159Z,1.40
2022-09-02T19:18:46.356Z,1.40
2022-09-02T19:21:17.587Z,1.45
2022-09-02T19:23:47.489Z,1.45
2022-09-02T19:26:17.337Z,1.67
2022-09-02T19:28:48.289Z,1.60
2022-09-02T19:31:23.032Z,1.45
2022-09-02T19:33:54.836Z,1.42
2022-09-02T19:36:26.393Z,1.52
2022-09-02T19:38:59.875Z,1.80
2022-09-02T19:41:29.153Z,1.50
2022-09-02T19:43:57.313Z,1.67
2022-09-02T19:47:06.974Z,1.30
2022-09-02T19:49:13.204Z,1.70
2022-09-02T19:51:42.447Z,1.90
2022-09-02T19:54:12.580Z,1.38
2022-09-02T19:56:42.551Z,2.20
2022-09-02T19:59:10.885Z,1.60
2022-09-02T20:01:39.055Z,1.60
2022-09-02T20:04:07.197Z,1.67
2022-09-02T20:06:35.238Z,1.60
2022-09-02T20:09:03.262Z,1.75
2022-09-02T20:11:31.269Z,1.60
2022-09-02T20:14:00.722Z,1.40
2022-09-02T20:16:29.842Z,1.77
2022-09-02T20:18:58.192Z,1.70
2022-09-02T20:21:28.025Z,1.50
2022-09-02T20:23:59.974Z,1.63
2022-09-02T20:26:49.122Z,1.75
2022-09-02T20:29:32.251Z,1.42
2022-09-02T20:32:07.232Z,1.80
2022-09-02T20:34:48.291Z,1.67
2022-09-02T20:37:30.414Z,1.50
2022-09-02T20:40:22.068Z,1.70
2022-09-02T20:43:10.364Z,1.92
2022-09-02T20:45:45.640Z,1.80
2022-09-02T20:48:27.620Z,1.67
2022-09-02T20:51:03.200Z,2.08
2022-09-02T20:54:12.129Z,2.00
2022-09-02T20:56:51.321Z,2.30
2022-09-02T20:59:28.353Z,2.38
2022-09-02T21:02:01.451Z,1.88
2022-09-02T21:04:35.770Z,1.90
2022-09-02T21:07:08.394Z,1.83
2022-09-02T21:09:42.478Z,1.92
2022-09-02T21:12:25.168Z,1.92
2022-09-02T21:14:59.894Z,2.10
2022-09-02T21:17:37.628Z,2.17
2022-09-02T21:20:14.652Z,2.67
2022-09-02T21:22:48.025Z,3.33
2022-09-02T21:25:24.424Z,2.65
2022-09-02T21:27:56.530Z,3.17
2022-09-02T21:30:28.049Z,2.60
2022-09-02T21:33:01.785Z,2.45
2022-09-02T21:35:38.209Z,2.75
2022-09-02T21:38:16.354Z,2.92
2022-09-02T21:41:04.110Z,3.00
2022-09-02T21:43:46.270Z,3.17
2022-09-02T21:46:24.306Z,2.78
2022-09-02T21:49:01.864Z,2.78
2022-09-02T21:51:35.892Z,3.13
2022-09-02T21:54:16.581Z,2.65
2022-09-02T21:56:55.667Z,2.30
2022-09-02T21:59:41.566Z,2.20
2022-09-02T22:02:14.923Z,2.33
2022-09-02T22:04:58.849Z,1.98
2022-09-02T22:07:34.773Z,1.67
2022-09-02T22:10:13.351Z,1.95
2022-09-02T22:12:48.864Z,1.95
2022-09-02T22:15:27.898Z,1.60
2022-09-02T22:18:00.144Z,1.77
2022-09-02T22:20:39.050Z,1.75
2022-09-02T22:23:15.592Z,1.88
2022-09-02T22:25:44.477Z,1.77
2022-09-02T22:28:21.117Z,2.00
2022-09-02T22:30:54.716Z,1.83
2022-09-02T22:33:25.579Z,1.88
2022-09-02T22:35:58.189Z,1.60
2022-09-02T22:38:35.081Z,1.90
2022-09-02T22:41:11.251Z,1.50
2022-09-02T22:43:45.298Z,1.70
2022-09-02T22:46:36.892Z,1.83
2022-09-02T22:49:27.842Z,1.60
2022-09-02T22:52:22.248Z,1.63
2022-09-02T22:54:52.212Z,1.60
2022-09-02T22:57:32.882Z,1.48
2022-09-02T23:00:07.798Z,1.60
2022-09-02T23:02:38.247Z,1.55
2022-09-02T23:05:37.467Z,1.60
2022-09-02T23:08:08.750Z,1.67
2022-09-02T23:10:44.308Z,1.50
2022-09-02T23:13:19.959Z,1.80
2022-09-02T23:15:59.240Z,1.63
2022-09-02T23:18:36.254Z,1.65
2022-09-02T23:21:10.490Z,1.70
2022-09-02T23:23:49.623Z,1.60
2022-09-02T23:26:31.709Z,1.35
2022-09-02T23:29:15.431Z,1.38
2022-09-02T23:32:09.923Z,1.48
2022-09-02T23:34:56.373Z,1.40
2022-09-02T23:37:35.476Z,1.40
2022-09-02T23:40:16.382Z,1.27
2022-09-02T23:42:44.392Z,1.50
2022-09-02T23:45:21.687Z,1.67
2022-09-02T23:48:02.916Z,1.48
2022-09-02T23:50:42.740Z,1.60
2022-09-02T23:53:18.206Z,1.50
2022-09-02T23:55:56.196Z,1.80
2022-09-02T23:58:46.169Z,1.55
